Time;durP1;ratioP1;P1;durP2;ratioP2;P2;SDS_P1;SDS_P2;PMS_P1;PMS_P2;Temp;Humidity;BMP_temperature;BMP_pressure;BME280_temperature;BME280_humidity;BME280_pressure;Samples;Min_cycle;Max_cycle;Signal;HPM_P1;HPM_P2
2022/11/16 00:01:13;;;;;;;;;2.00;1.00;;;;;12.13;77.23;99721.72;4996680;28;46599;-47
2022/11/16 00:03:38;;;;;;;;;0.67;0.00;;;;;12.07;77.54;99721.63;4996715;28;45485;-46
2022/11/16 00:06:06;;;;;;;;;1.00;1.00;;;;;11.97;77.92;99716.56;4997016;28;45404;-46
2022/11/16 00:08:34;;;;;;;;;1.00;1.00;;;;;12.04;77.84;99730.81;4997020;28;45550;-48
2022/11/16 00:11:13;;;;;;;;;6.00;2.00;;;;;12.01;77.89;99725.00;5018013;28;46057;-47
2022/11/16 00:13:40;;;;;;;;;3.00;3.00;;;;;12.01;78.02;99723.19;5058497;28;45319;-48
2022/11/16 00:16:07;;;;;;;;;7.00;3.00;;;;;12.00;78.41;99724.19;5058767;28;45477;-48
2022/11/16 00:18:33;;;;;;;;;4.67;2.00;;;;;12.00;78.23;99726.84;5058930;28;45295;-46
2022/11/16 00:20:58;;;;;;;;;10.67;2.33;;;;;12.00;78.46;99726.84;5058633;28;46216;-46
2022/11/16 00:23:24;;;;;;;;;8.00;2.33;;;;;11.96;78.37;99731.72;5058709;28;45316;-49
2022/11/16 00:25:50;;;;;;;;;6.33;2.67;;;;;11.94;78.45;99722.25;5058640;28;45245;-48
2022/11/16 00:28:16;;;;;;;;;2.33;0.33;;;;;11.91;78.18;99734.09;5058762;28;45470;-48
2022/11/16 00:30:41;;;;;;;;;2.00;2.00;;;;;11.88;78.48;99723.81;5058278;28;46222;-46
2022/11/16 00:33:13;;;;;;;;;8.67;4.00;;;;;11.89;78.83;99727.31;5058559;28;45427;-48
2022/11/16 00:35:39;;;;;;;;;2.67;1.33;;;;;11.83;78.66;99726.16;5058544;28;45339;-47
2022/11/16 00:38:05;;;;;;;;;2.00;2.00;;;;;11.82;78.52;99739.66;5058666;28;45324;-45
2022/11/16 00:40:30;;;;;;;;;2.00;1.33;;;;;11.78;78.39;99733.03;5058206;28;47266;-47
2022/11/16 00:42:56;;;;;;;;;3.00;1.00;;;;;11.75;78.97;99728.88;5058218;28;45410;-44
2022/11/16 00:45:21;;;;;;;;;6.33;2.33;;;;;11.77;78.97;99729.53;5058534;28;45401;-44
2022/11/16 00:47:47;;;;;;;;;2.33;2.33;;;;;11.68;79.01;99711.97;5058381;28;45319;-47
2022/11/16 00:50:12;;;;;;;;;2.00;2.00;;;;;11.72;78.43;99726.59;5057924;28;45485;-46
2022/11/16 00:52:37;;;;;;;;;4.67;4.67;;;;;11.71;78.51;99724.91;5058226;28;45270;-48
2022/11/16 00:55:03;;;;;;;;;1.00;1.00;;;;;11.64;78.88;99723.97;5058380;28;45323;-48
2022/11/16 00:57:28;;;;;;;;;6.67;2.33;;;;;11.61;78.64;99716.34;5058114;28;45561;-48
2022/11/16 00:59:54;;;;;;;;;4.00;3.00;;;;;11.64;78.44;99726.66;5057322;28;46881;-47
2022/11/16 01:02:19;;;;;;;;;8.67;3.00;;;;;11.57;78.96;99726.50;5057678;28;45492;-46
2022/11/16 01:04:44;;;;;;;;;0.00;0.00;;;;;11.58;78.96;99730.81;5058131;28;45389;-49
2022/11/16 01:07:09;;;;;;;;;2.00;2.00;;;;;11.54;78.71;99721.53;5058133;28;45310;-47
2022/11/16 01:09:35;;;;;;;;;2.00;2.00;;;;;11.53;78.64;99729.72;5057928;28;46064;-48
2022/11/16 01:12:09;;;;;;;;;1.00;1.00;;;;;11.54;78.48;99740.19;5058119;28;45233;-47
2022/11/16 01:14:41;;;;;;;;;1.67;1.00;;;;;11.55;78.63;99744.53;5058386;28;45375;-48
2022/11/16 01:17:07;;;;;;;;;4.00;3.00;;;;;11.54;78.69;99732.19;5056479;28;45378;-49
2022/11/16 01:19:32;;;;;;;;;4.67;2.00;;;;;11.51;78.58;99719.25;5057722;28;46286;-48
2022/11/16 01:21:58;;;;;;;;;2.00;2.00;;;;;11.55;78.70;99727.72;5057662;28;45347;-48
2022/11/16 01:24:25;;;;;;;;;2.00;1.00;;;;;11.55;78.65;99733.03;5057930;28;45338;-47
2022/11/16 01:26:55;;;;;;;;;3.00;2.00;;;;;11.54;79.09;99723.38;5057981;28;45154;-46
2022/11/16 01:29:23;;;;;;;;;2.67;2.00;;;;;11.56;78.59;99730.19;5057431;28;46129;-48
2022/11/16 01:31:48;;;;;;;;;1.67;1.67;;;;;11.56;78.89;99724.03;5057552;28;45430;-48
2022/11/16 01:34:13;;;;;;;;;11.00;2.00;;;;;11.54;78.50;99726.88;5057538;28;45329;-46
2022/11/16 01:36:39;;;;;;;;;1.00;1.00;;;;;11.51;78.90;99729.06;5057843;28;45320;-47
2022/11/16 01:39:05;;;;;;;;;1.00;1.00;;;;;11.49;78.54;99723.91;5057448;28;45311;-46
2022/11/16 01:41:30;;;;;;;;;3.67;2.00;;;;;11.47;78.77;99725.94;5057200;28;45432;-48
2022/11/16 01:44:05;;;;;;;;;2.00;1.00;;;;;11.45;78.45;99725.28;5057358;28;45407;-48
2022/11/16 01:46:31;;;;;;;;;4.00;2.00;;;;;11.41;78.47;99726.63;5073140;27;45416;-47
2022/11/16 01:49:06;;;;;;;;;3.00;1.00;;;;;11.44;78.67;99731.59;5072189;28;45604;-48
2022/11/16 01:51:32;;;;;;;;;2.00;1.00;;;;;11.42;78.61;99731.78;5057299;28;45345;-47
2022/11/16 01:54:01;;;;;;;;;5.00;2.00;;;;;11.41;78.56;99732.78;5057365;28;45204;-48
2022/11/16 01:56:30;;;;;;;;;2.33;0.00;;;;;11.40;78.57;99725.81;5057239;28;45370;-49
2022/11/16 01:58:55;;;;;;;;;2.00;1.00;;;;;11.39;78.63;99737.47;5056858;28;45416;-46
2022/11/16 02:01:22;;;;;;;;;6.67;1.00;;;;;11.37;78.57;99725.31;5056946;28;45421;-46
2022/11/16 02:03:47;;;;;;;;;1.67;0.33;;;;;11.02;78.94;99676.97;5057267;28;45370;-47
2022/11/16 02:06:29;;;;;;;;;5.33;1.00;;;;;11.30;78.77;99719.88;5057112;28;45486;-47
2022/11/16 02:12:13;;;;;;;;;2.33;0.33;;;;;11.27;78.92;99722.91;5047269;28;45423;-47
2022/11/16 02:15:06;;;;;;;;;3.33;3.33;;;;;11.27;78.79;99724.72;5056888;28;45319;-47
2022/11/16 02:17:58;;;;;;;;;5.00;1.00;;;;;11.26;78.80;99717.75;5057149;28;45371;-48
2022/11/16 02:20:43;;;;;;;;;5.00;1.00;;;;;11.20;78.47;99722.75;5056679;28;46626;-47
2022/11/16 02:23:33;;;;;;;;;0.33;0.33;;;;;11.16;78.39;99720.63;5057008;28;45306;-48
2022/11/16 02:26:11;;;;;;;;;1.00;1.00;;;;;11.13;78.64;99721.81;5056945;28;45238;-48
2022/11/16 02:28:46;;;;;;;;;1.33;1.00;;;;;11.08;78.46;99716.19;5057016;28;45288;-48
2022/11/16 02:31:16;;;;;;;;;2.00;1.00;;;;;11.08;78.79;99726.00;5056635;28;46193;-48
2022/11/16 02:33:45;;;;;;;;;1.67;1.00;;;;;10.94;78.31;99708.94;5056848;28;45223;-47
2022/11/16 02:36:15;;;;;;;;;3.00;1.00;;;;;11.02;78.49;99727.53;5057253;28;45612;-46
2022/11/16 02:38:48;;;;;;;;;5.00;1.33;;;;;10.94;78.29;99712.44;5057281;28;45312;-45
2022/11/16 02:41:19;;;;;;;;;2.00;1.33;;;;;11.06;77.92;99726.19;5056775;28;46150;-49
2022/11/16 02:43:53;;;;;;;;;1.33;0.00;;;;;11.06;77.94;99720.03;5057063;28;45336;-50
2022/11/16 02:46:24;;;;;;;;;2.00;2.00;;;;;11.06;77.92;99728.00;5056783;28;45290;-49
2022/11/16 02:48:54;;;;;;;;;0.33;0.00;;;;;11.04;77.87;99719.34;5056907;28;45366;-47
2022/11/16 02:51:23;;;;;;;;;2.67;1.00;;;;;11.02;77.84;99710.75;5056549;28;47166;-47
2022/11/16 02:54:03;;;;;;;;;4.33;0.33;;;;;10.91;77.01;99698.63;5056354;28;45390;-49
2022/11/16 02:56:29;;;;;;;;;1.00;0.33;;;;;10.98;77.12;99712.91;5056529;28;45414;-48
2022/11/16 02:58:57;;;;;;;;;0.00;0.00;;;;;10.88;76.89;99694.50;5056632;28;45605;-48
2022/11/16 03:01:37;;;;;;;;;0.33;0.33;;;;;11.01;77.25;99714.41;5056194;28;46618;-48
2022/11/16 03:04:15;;;;;;;;;1.00;1.00;;;;;10.88;76.63;99696.34;5056269;28;45436;-49
2022/11/16 03:06:44;;;;;;;;;1.67;0.00;;;;;10.98;76.75;99715.56;5056460;28;45427;-46
2022/11/16 03:09:19;;;;;;;;;5.00;0.33;;;;;10.95;76.73;99711.41;5056530;28;45397;-47
2022/11/16 03:11:58;;;;;;;;;1.00;1.00;;;;;10.93;76.38;99701.97;5056063;28;47590;-50
2022/11/16 03:14:47;;;;;;;;;1.00;1.00;;;;;10.91;76.23;99702.16;5056010;28;45455;-46
2022/11/16 03:17:27;;;;;;;;;3.00;1.00;;;;;10.92;76.26;99701.16;5056239;28;45363;-49
2022/11/16 03:20:13;;;;;;;;;1.00;1.00;;;;;10.90;76.33;99695.16;5056534;28;45335;-48
2022/11/16 03:22:45;;;;;;;;;2.67;1.00;;;;;10.91;76.02;99693.31;5056312;28;46389;-47
2022/11/16 03:25:15;;;;;;;;;0.33;0.33;;;;;10.87;76.57;99692.00;5059466;28;45223;-49
2022/11/16 03:28:11;;;;;;;;;1.00;1.00;;;;;10.89;76.63;99692.69;5059587;28;45235;-48
2022/11/16 03:30:42;;;;;;;;;1.67;1.00;;;;;10.87;76.25;99692.00;5059543;28;45465;-47
2022/11/16 03:33:42;;;;;;;;;1.00;1.00;;;;;10.85;76.74;99691.38;5059419;28;45259;-48
2022/11/16 03:36:33;;;;;;;;;0.00;0.00;;;;;10.81;76.75;99685.56;4977618;28;45398;-47
2022/11/16 03:39:04;;;;;;;;;1.67;1.33;;;;;10.78;76.74;99688.56;4977417;28;45340;-50
2022/11/16 03:41:32;;;;;;;;;1.33;1.33;;;;;10.69;76.63;99676.31;4978005;28;45339;-48
2022/11/16 03:43:58;;;;;;;;;1.00;1.00;;;;;10.64;76.60;99671.50;4977158;28;46169;-47
2022/11/16 03:46:23;;;;;;;;;1.00;1.00;;;;;10.66;76.74;99679.31;4977293;28;45289;-47
2022/11/16 03:48:56;;;;;;;;;2.00;2.00;;;;;10.65;76.86;99680.31;4977378;28;45362;-49
2022/11/16 03:51:21;;;;;;;;;5.00;1.00;;;;;10.64;77.33;99678.66;4977688;28;45366;-49
2022/11/16 03:53:47;;;;;;;;;2.67;0.00;;;;;10.63;77.40;99674.34;4977330;28;46112;-46
2022/11/16 03:56:13;;;;;;;;;1.00;1.00;;;;;10.65;77.42;99683.81;4977403;28;45296;-46
2022/11/16 03:58:38;;;;;;;;;3.00;1.33;;;;;10.61;77.32;99669.19;4977092;28;45444;-48
2022/11/16 04:01:04;;;;;;;;;1.67;1.67;;;;;10.59;77.42;99665.88;4977233;28;45336;-46
2022/11/16 04:03:30;;;;;;;;;2.00;1.00;;;;;10.60;77.45;99672.03;4977168;28;45524;-49
2022/11/16 04:25:25;;;;;;;;;1.67;1.67;;;;;10.40;78.43;99659.13;5058373;28;45785;-47
2022/11/16 04:38:51;;;;;;;;;11.33;2.00;;;;;10.35;79.38;99656.16;5058377;28;45377;-49
2022/11/16 04:44:01;;;;;;;;;2.00;2.00;;;;;10.33;79.41;99647.56;5058629;28;45241;-45
2022/11/16 04:49:11;;;;;;;;;2.00;0.00;;;;;10.29;79.61;99638.25;5058349;28;45288;-47
2022/11/16 04:51:36;;;;;;;;;2.00;2.00;;;;;10.36;79.87;99643.72;5058451;28;45331;-48
2022/11/16 04:54:01;;;;;;;;;6.00;2.00;;;;;10.39;79.77;99648.69;5058126;28;45380;-47
2022/11/16 04:56:27;;;;;;;;;2.00;2.00;;;;;10.43;79.58;99648.16;5058213;28;46237;-48
2022/11/16 04:58:52;;;;;;;;;2.67;1.00;;;;;10.48;79.58;99642.31;5058043;28;45405;-46
2022/11/16 05:02:06;;;;;;;;;2.00;0.67;;;;;10.51;79.46;99631.34;5057959;28;45295;-48
2022/11/16 05:04:03;;;;;;;;;1.00;1.00;;;;;10.53;79.53;99644.47;5058155;28;45402;-45
2022/11/16 05:06:28;;;;;;;;;1.00;1.00;;;;;10.52;79.73;99640.97;5057735;28;46204;-48
2022/11/16 05:08:54;;;;;;;;;3.33;1.00;;;;;10.52;79.64;99635.66;5057783;28;45443;-47
2022/11/16 05:11:19;;;;;;;;;7.33;2.67;;;;;10.52;80.17;99634.84;5057982;28;45278;-47
2022/11/16 05:13:44;;;;;;;;;1.00;1.00;;;;;10.51;80.06;99628.69;5058111;28;45441;-46
2022/11/16 05:16:10;;;;;;;;;3.00;1.33;;;;;10.53;79.81;99639.16;5057424;28;46423;-46
2022/11/16 05:18:35;;;;;;;;;3.00;1.00;;;;;10.53;79.82;99639.97;5057645;28;45292;-46
2022/11/16 05:21:00;;;;;;;;;3.00;1.33;;;;;10.53;80.03;99645.28;5057561;28;45323;-46
2022/11/16 05:26:09;;;;;;;;;2.00;2.00;;;;;10.55;80.20;99637.16;5057548;28;45967;-48
2022/11/16 05:28:35;;;;;;;;;5.00;2.00;;;;;10.58;80.14;99632.31;5057274;28;45356;-46
2022/11/16 05:31:00;;;;;;;;;2.00;2.00;;;;;10.57;80.00;99635.97;5057553;28;45218;-49
2022/11/16 05:33:25;;;;;;;;;7.67;0.33;;;;;10.65;80.04;99635.09;5057656;28;45235;-46
2022/11/16 05:35:51;;;;;;;;;3.00;3.00;;;;;10.69;79.63;99636.41;5057232;28;45351;-47
2022/11/16 05:38:17;;;;;;;;;2.33;1.00;;;;;10.67;79.95;99633.94;5057511;28;45237;-47
2022/11/16 05:40:42;;;;;;;;;1.00;1.00;;;;;10.70;80.08;99638.91;5072972;27;45491;-46
2022/11/16 05:43:08;;;;;;;;;4.33;2.00;;;;;10.78;79.62;99631.88;5057325;28;45537;-49
2022/11/16 05:45:33;;;;;;;;;2.00;2.00;;;;;10.76;79.68;99626.75;5057074;28;45322;-47
2022/11/16 05:47:58;;;;;;;;;5.67;1.33;;;;;10.79;79.66;99633.53;5056878;28;45466;-48
2022/11/16 05:50:24;;;;;;;;;6.00;2.00;;;;;10.82;80.29;99631.34;5057443;28;45272;-46
2022/11/16 05:52:49;;;;;;;;;2.00;2.00;;;;;10.83;79.70;99629.50;5056073;28;45293;-48
2022/11/16 05:55:15;;;;;;;;;6.00;3.00;;;;;10.81;79.95;99619.06;5056960;28;45333;-47
2022/11/16 05:57:40;;;;;;;;;4.33;1.00;;;;;10.85;79.70;99630.19;5057111;28;45871;-48
2022/11/16 06:00:06;;;;;;;;;6.00;3.00;;;;;10.82;80.16;99626.03;5057011;28;45284;-48
2022/11/16 06:02:32;;;;;;;;;2.00;2.00;;;;;10.71;80.20;99613.97;5057145;28;45494;-48
2022/11/16 06:04:57;;;;;;;;;2.67;2.67;;;;;10.82;80.26;99630.53;5055721;28;46255;-47
2022/11/16 06:07:23;;;;;;;;;6.33;3.00;;;;;10.76;80.47;99625.91;5056297;28;45220;-46
2022/11/16 06:09:48;;;;;;;;;3.00;3.00;;;;;10.77;80.39;99624.91;5056586;28;45258;-47
2022/11/16 06:12:14;;;;;;;;;3.00;2.00;;;;;10.74;80.66;99621.59;5056776;28;45255;-47
2022/11/16 06:14:39;;;;;;;;;6.67;2.00;;;;;10.75;80.65;99630.41;5056659;28;45804;-47
2022/11/16 06:17:04;;;;;;;;;3.67;2.00;;;;;10.74;80.19;99636.72;5056331;28;45457;-45
2022/11/16 06:19:30;;;;;;;;;2.00;1.33;;;;;10.66;80.46;99623.44;5056631;28;45388;-47
2022/11/16 06:21:55;;;;;;;;;4.33;1.00;;;;;10.64;80.51;99636.94;5056652;28;45368;-49
2022/11/16 06:24:21;;;;;;;;;6.00;3.00;;;;;10.64;80.88;99644.09;5056212;28;46292;-49
2022/11/16 06:26:46;;;;;;;;;1.67;1.67;;;;;10.62;81.01;99632.78;5056566;28;45372;-49
2022/11/16 06:29:11;;;;;;;;;2.67;2.00;;;;;10.63;80.69;99629.16;5056412;28;45493;-47
2022/11/16 06:31:37;;;;;;;;;2.33;2.33;;;;;10.61;80.83;99637.28;5056603;28;45325;-48
2022/11/16 06:34:02;;;;;;;;;3.00;2.00;;;;;10.59;80.75;99630.50;5056166;28;46320;-48
2022/11/16 06:36:28;;;;;;;;;6.67;2.00;;;;;10.47;80.92;99622.06;5056357;28;45402;-49
2022/11/16 06:38:53;;;;;;;;;2.00;1.00;;;;;10.51;80.77;99622.56;5056776;28;45345;-50
2022/11/16 06:41:19;;;;;;;;;3.00;3.00;;;;;10.49;81.02;99626.22;5056469;28;45291;-49
2022/11/16 06:43:44;;;;;;;;;6.00;3.00;;;;;10.48;81.04;99634.34;5056302;28;45504;-46
2022/11/16 06:46:09;;;;;;;;;4.33;2.67;;;;;10.49;80.47;99626.22;5056194;28;45367;-48
2022/11/16 06:48:35;;;;;;;;;6.00;3.00;;;;;10.49;81.10;99631.53;5056132;28;45359;-49
2022/11/16 06:51:00;;;;;;;;;2.00;2.00;;;;;10.47;81.18;99630.88;5056735;28;45352;-48
2022/11/16 06:53:25;;;;;;;;;5.00;3.00;;;;;10.46;81.26;99621.25;5056164;28;46102;-48
2022/11/16 06:55:51;;;;;;;;;7.67;5.00;;;;;10.45;81.39;99619.59;5056493;28;45384;-47
2022/11/16 06:58:16;;;;;;;;;6.00;6.00;;;;;10.45;81.58;99627.56;5057918;28;45295;-46
2022/11/16 07:00:42;;;;;;;;;12.67;6.33;;;;;10.34;82.03;99612.00;5059987;28;45355;-46
2022/11/16 07:03:07;;;;;;;;;7.67;3.00;;;;;10.45;81.79;99624.09;5059598;28;46115;-47
2022/11/16 07:05:32;;;;;;;;;6.00;3.00;;;;;10.45;81.77;99626.75;5059801;28;45232;-50
2022/11/16 07:07:58;;;;;;;;;4.67;4.33;;;;;10.51;81.95;99625.22;5060048;28;45318;-50
2022/11/16 07:10:24;;;;;;;;;10.00;3.67;;;;;10.49;82.08;99628.03;5059925;28;45383;-48
2022/11/16 07:12:49;;;;;;;;;3.00;3.00;;;;;10.52;82.29;99633.00;5059527;28;46329;-49
2022/11/16 07:15:15;;;;;;;;;5.33;2.67;;;;;10.54;82.00;99641.66;5059349;28;45323;-47
2022/11/16 07:17:41;;;;;;;;;7.00;5.00;;;;;10.57;82.44;99638.63;5059689;28;45402;-49
2022/11/16 07:20:07;;;;;;;;;8.67;6.33;;;;;10.59;82.28;99636.63;5060001;28;45303;-47
2022/11/16 07:22:32;;;;;;;;;10.00;6.00;;;;;10.62;82.43;99644.28;5059471;28;45507;-50
2022/11/16 07:24:57;;;;;;;;;2.00;2.00;;;;;10.66;82.62;99645.59;5059378;28;45332;-48
2022/11/16 07:27:23;;;;;;;;;15.33;6.67;;;;;10.69;82.47;99639.06;5059661;28;45445;-47
2022/11/16 07:29:48;;;;;;;;;6.67;2.67;;;;;10.70;82.70;99654.03;5058290;28;45267;-46
2022/11/16 07:32:14;;;;;;;;;9.67;7.33;;;;;10.73;82.45;99637.72;5059402;28;45963;-51
2022/11/16 07:34:39;;;;;;;;;3.00;1.33;;;;;10.73;82.86;99643.88;5059192;28;45323;-48
2022/11/16 07:37:04;;;;;;;;;6.33;5.33;;;;;10.77;82.85;99636.38;5059253;28;45476;-49
2022/11/16 07:39:30;;;;;;;;;6.67;3.33;;;;;10.84;82.42;99644.50;5059646;28;45495;-48
2022/11/16 07:41:55;;;;;;;;;8.33;6.00;;;;;10.85;82.65;99630.19;5058985;28;46161;-47
2022/11/16 07:44:20;;;;;;;;;5.67;3.33;;;;;10.86;82.72;99640.63;5059318;28;45320;-49
2022/11/16 07:46:46;;;;;;;;;5.00;5.00;;;;;10.82;82.51;99636.66;5059088;28;45407;-47
2022/11/16 07:49:16;;;;;;;;;9.33;2.67;;;;;10.88;82.69;99640.47;5059144;28;45453;-51
2022/11/16 07:51:41;;;;;;;;;5.00;3.33;;;;;10.90;82.60;99643.78;5059066;28;46268;-48
2022/11/16 07:54:10;;;;;;;;;13.00;6.67;;;;;10.92;82.83;99633.81;5058052;28;45399;-48
2022/11/16 07:56:35;;;;;;;;;5.33;2.67;;;;;10.96;82.76;99627.94;5059252;28;45406;-49
2022/11/16 07:59:01;;;;;;;;;7.67;4.33;;;;;10.98;83.39;99641.06;5059018;28;45664;-50
2022/11/16 08:01:26;;;;;;;;;8.33;6.33;;;;;10.99;82.91;99632.91;5058714;28;46147;-48
2022/11/16 08:03:52;;;;;;;;;8.00;6.67;;;;;11.02;83.12;99637.06;5059372;28;45408;-47
2022/11/16 08:06:26;;;;;;;;;5.00;5.00;;;;;10.95;83.01;99628.94;5059170;28;45399;-47
2022/11/16 08:08:52;;;;;;;;;5.00;2.33;;;;;11.05;82.82;99646.53;5058480;28;45406;-47
2022/11/16 08:11:17;;;;;;;;;5.33;3.00;;;;;11.08;83.01;99625.72;5057976;28;47184;-47
2022/11/16 08:13:43;;;;;;;;;3.00;3.00;;;;;11.12;82.36;99639.47;5058789;28;45334;-49
2022/11/16 08:16:14;;;;;;;;;6.33;3.00;;;;;11.15;82.79;99639.13;5058852;28;45315;-48
2022/11/16 08:18:40;;;;;;;;;7.00;3.00;;;;;11.17;82.58;99647.78;5058868;28;45323;-48
2022/11/16 08:21:07;;;;;;;;;3.00;3.00;;;;;11.18;82.55;99652.91;5058134;28;47107;-46
2022/11/16 08:23:33;;;;;;;;;6.67;2.33;;;;;11.21;82.66;99635.78;5058403;28;45190;-47
2022/11/16 08:26:08;;;;;;;;;5.33;5.33;;;;;11.26;82.61;99640.56;5058680;28;45319;-47
2022/11/16 08:28:34;;;;;;;;;10.67;7.00;;;;;11.30;82.63;99640.03;5058856;28;45432;-49
2022/11/16 08:31:06;;;;;;;;;5.33;3.67;;;;;11.32;82.20;99642.50;5058265;28;46200;-47
2022/11/16 08:33:31;;;;;;;;;7.33;6.00;;;;;11.35;82.46;99636.81;5058265;28;45394;-47
2022/11/16 08:36:03;;;;;;;;;13.00;8.67;;;;;11.38;81.93;99644.47;5058460;28;45406;-49
2022/11/16 08:38:28;;;;;;;;;12.00;7.67;;;;;11.43;81.86;99644.75;5058715;28;45494;-48
2022/11/16 08:40:54;;;;;;;;;12.67;6.00;;;;;11.44;82.01;99646.38;5058109;28;45327;-49
2022/11/16 08:43:20;;;;;;;;;5.33;3.00;;;;;11.46;81.84;99647.03;5058273;28;45340;-47
2022/11/16 08:45:48;;;;;;;;;7.00;6.00;;;;;11.41;82.48;99620.13;5058105;28;45498;-50
2022/11/16 08:48:14;;;;;;;;;2.33;2.00;;;;;11.49;81.52;99634.19;5058229;28;45250;-50
2022/11/16 08:50:40;;;;;;;;;8.00;5.00;;;;;11.48;81.91;99626.38;5058137;28;46232;-50
2022/11/16 08:53:05;;;;;;;;;6.00;3.00;;;;;11.53;81.81;99632.00;5057979;28;45421;-50
2022/11/16 08:55:32;;;;;;;;;7.67;5.33;;;;;11.59;81.51;99628.63;5058174;28;45309;-49
2022/11/16 08:57:57;;;;;;;;;5.00;3.67;;;;;11.62;81.41;99632.75;5058367;28;45391;-49
2022/11/16 09:00:22;;;;;;;;;3.00;3.00;;;;;11.66;81.70;99634.03;5057720;28;46113;-48
2022/11/16 09:02:48;;;;;;;;;2.00;2.00;;;;;11.69;81.90;99623.84;5058176;28;45369;-51
2022/11/16 09:05:14;;;;;;;;;3.67;3.67;;;;;11.71;82.24;99627.19;5058090;28;45321;-48
2022/11/16 09:07:42;;;;;;;;;6.00;5.00;;;;;11.73;82.14;99616.34;5058087;28;45447;-49
2022/11/16 09:10:08;;;;;;;;;6.00;3.00;;;;;11.79;81.81;99626.25;5057622;28;46138;-49
2022/11/16 09:12:34;;;;;;;;;3.00;3.00;;;;;11.82;81.66;99611.75;5057726;28;45517;-48
2022/11/16 09:14:59;;;;;;;;;9.00;4.00;;;;;11.87;81.96;99614.72;5057904;28;45291;-48
2022/11/16 09:17:24;;;;;;;;;8.00;3.00;;;;;11.87;81.58;99612.06;5057910;28;45347;-46
2022/11/16 09:19:50;;;;;;;;;3.67;3.67;;;;;11.94;81.62;99611.16;5056260;28;47533;-48
2022/11/16 09:22:15;;;;;;;;;9.00;5.33;;;;;11.96;81.49;99614.44;5057615;28;45206;-48
2022/11/16 09:24:41;;;;;;;;;7.00;4.00;;;;;11.97;81.38;99610.78;5057894;28;45301;-48
2022/11/16 09:27:06;;;;;;;;;5.33;4.33;;;;;12.02;80.88;99626.22;5058113;28;45422;-47
2022/11/16 09:29:31;;;;;;;;;7.00;1.33;;;;;12.05;80.51;99620.53;5057542;28;45257;-50
2022/11/16 09:31:57;;;;;;;;;5.33;2.00;;;;;12.05;80.56;99620.53;5057552;28;45373;-49
2022/11/16 09:34:23;;;;;;;;;3.00;2.00;;;;;12.11;80.12;99625.13;5057664;28;45418;-48
2022/11/16 09:36:48;;;;;;;;;7.00;5.33;;;;;12.10;80.38;99623.47;5057641;28;45478;-48
2022/11/16 09:39:14;;;;;;;;;8.67;3.00;;;;;12.09;80.04;99612.97;5057593;28;45910;-50
2022/11/16 09:41:59;;;;;;;;;6.00;3.67;;;;;12.09;80.33;99615.63;5057235;28;45319;-49
2022/11/16 09:44:49;;;;;;;;;11.33;3.00;;;;;12.12;80.36;99609.94;5057666;28;45312;-49
2022/11/16 09:47:20;;;;;;;;;3.67;3.00;;;;;12.11;80.43;99603.78;5057709;28;45461;-49
2022/11/16 09:50:00;;;;;;;;;3.00;3.00;;;;;12.12;80.34;99592.09;5057486;28;45386;-50
2022/11/16 09:52:45;;;;;;;;;3.00;3.00;;;;;12.15;80.61;99586.41;5057754;28;45275;-51
2022/11/16 09:55:39;;;;;;;;;2.67;2.00;;;;;12.18;80.28;99595.91;5057727;28;45340;-47
2022/11/16 09:58:12;;;;;;;;;6.00;3.00;;;;;12.22;80.72;99587.34;5057803;28;45457;-48
2022/11/16 10:00:43;;;;;;;;;4.67;3.33;;;;;12.27;80.41;99597.44;5057117;28;46194;-50
2022/11/16 10:03:13;;;;;;;;;3.67;3.67;;;;;12.34;80.41;99592.19;5056770;28;45415;-50
2022/11/16 10:06:02;;;;;;;;;3.00;1.33;;;;;12.40;80.09;99591.44;5057301;28;45322;-49
2022/11/16 10:08:42;;;;;;;;;7.00;3.00;;;;;12.43;80.17;99586.56;5057194;28;45271;-50
2022/11/16 10:11:07;;;;;;;;;6.00;1.33;;;;;12.49;80.28;99585.81;5057036;28;45505;-49
2022/11/16 10:14:01;;;;;;;;;7.00;3.00;;;;;12.53;79.81;99578.25;5057003;28;45215;-52
2022/11/16 10:16:35;;;;;;;;;7.67;4.33;;;;;12.62;79.90;99571.81;5056987;28;45366;-49
2022/11/16 10:19:18;;;;;;;;;7.00;4.33;;;;;12.67;79.12;99572.06;5056912;28;45334;-49
2022/11/16 10:22:04;;;;;;;;;6.67;2.33;;;;;12.74;79.08;99570.28;5056692;28;46473;-50
2022/11/16 10:24:49;;;;;;;;;3.00;2.67;;;;;12.82;78.42;99584.53;5056625;28;45266;-49
2022/11/16 10:27:33;;;;;;;;;1.67;1.67;;;;;12.89;78.12;99588.06;5056762;28;45313;-52
2022/11/16 10:30:07;;;;;;;;;2.67;2.00;;;;;13.05;78.48;99589.69;5056911;28;45346;-49
2022/11/16 10:32:39;;;;;;;;;7.67;2.33;;;;;13.17;77.94;99590.81;5056805;28;47111;-48
2022/11/16 10:35:11;;;;;;;;;3.00;1.00;;;;;13.26;77.38;99603.06;5060178;28;45178;-48
2022/11/16 10:37:43;;;;;;;;;4.00;2.67;;;;;13.29;76.73;99593.84;5060162;28;45327;-49
2022/11/16 10:40:16;;;;;;;;;3.00;1.33;;;;;13.31;76.62;99583.78;5060417;28;45430;-48
2022/11/16 10:43:02;;;;;;;;;1.00;1.00;;;;;13.35;76.35;99590.38;5060194;28;46254;-48
2022/11/16 10:45:38;;;;;;;;;8.00;2.00;;;;;13.36;75.71;99586.72;5060278;28;45374;-47
2022/11/16 10:48:40;;;;;;;;;2.00;2.00;;;;;13.44;75.55;99581.22;5060098;28;45390;-49
2022/11/16 10:51:08;;;;;;;;;4.67;1.00;;;;;13.46;74.75;99590.69;4978555;28;45576;-47
2022/11/16 10:53:35;;;;;;;;;3.00;1.00;;;;;13.46;75.43;99580.00;4978134;28;45494;-50
2022/11/16 10:56:19;;;;;;;;;4.33;3.33;;;;;13.51;74.83;99563.41;4977920;28;45439;-47
2022/11/16 10:58:53;;;;;;;;;7.00;3.00;;;;;13.59;74.37;99551.75;4978311;28;45402;-51
2022/11/16 11:01:48;;;;;;;;;2.00;1.00;;;;;13.65;74.54;99549.13;4978124;28;45668;-48
2022/11/16 11:04:27;;;;;;;;;4.00;2.67;;;;;13.66;74.39;99542.75;4938984;28;46153;-48
2022/11/16 11:07:23;;;;;;;;;1.33;1.00;;;;;13.67;74.06;99541.72;4939323;28;45700;-50
2022/11/16 11:09:52;;;;;;;;;1.00;0.67;;;;;13.71;73.55;99544.84;4939407;28;45483;-48
2022/11/16 11:12:37;;;;;;;;;2.00;1.33;;;;;13.71;73.62;99539.50;4923156;28;45667;-48
2022/11/16 11:15:25;;;;;;;;;1.00;1.00;;;;;13.67;73.37;99539.06;4938948;28;45970;-49
2022/11/16 11:18:08;;;;;;;;;4.00;3.00;;;;;13.71;73.53;99534.97;4938907;28;45551;-52
2022/11/16 11:20:34;;;;;;;;;3.00;2.00;;;;;13.75;73.17;99546.09;4922860;28;45506;-47
2022/11/16 11:23:09;;;;;;;;;3.00;1.00;;;;;13.76;72.92;99538.91;4939043;28;45608;-52
2022/11/16 11:25:52;;;;;;;;;3.67;1.00;;;;;13.80;72.85;99542.81;4939055;28;45459;-46
2022/11/16 11:28:27;;;;;;;;;3.00;1.33;;;;;13.83;73.05;99531.75;4964557;28;45491;-48
2022/11/16 11:31:15;;;;;;;;;2.00;1.67;;;;;13.86;72.36;99528.66;4977870;28;45443;-48
2022/11/16 11:34:14;;;;;;;;;2.00;1.00;;;;;13.90;72.53;99509.34;4977723;28;45661;-49
2022/11/16 11:36:51;;;;;;;;;4.67;3.00;;;;;13.90;72.02;99517.38;4977392;28;46138;-48
2022/11/16 11:39:19;;;;;;;;;3.00;2.00;;;;;13.96;71.21;99524.63;4977691;28;45429;-48
2022/11/16 11:41:58;;;;;;;;;4.33;1.00;;;;;13.99;71.26;99512.72;5055533;28;45408;-48
2022/11/16 11:44:34;;;;;;;;;3.67;2.00;;;;;14.11;70.35;99513.75;5059416;28;45241;-51
2022/11/16 11:47:06;;;;;;;;;8.33;1.00;;;;;14.14;70.48;99515.22;5059071;28;46171;-47
2022/11/16 11:49:40;;;;;;;;;7.00;2.67;;;;;14.16;70.49;99510.53;5058923;28;45383;-49
2022/11/16 11:52:16;;;;;;;;;1.00;1.00;;;;;14.21;70.39;99518.75;5059034;28;45252;-49
2022/11/16 11:54:48;;;;;;;;;2.33;1.00;;;;;14.26;69.64;99504.78;5059256;28;45496;-47
2022/11/16 11:57:20;;;;;;;;;7.33;2.00;;;;;14.19;69.90;99494.03;5074456;28;47133;-47
2022/11/16 11:59:47;;;;;;;;;3.33;1.00;;;;;14.29;69.40;99499.03;5057617;28;45399;-48
2022/11/16 12:02:36;;;;;;;;;5.00;2.00;;;;;14.32;69.23;99498.63;5058655;28;45369;-48
2022/11/16 12:05:26;;;;;;;;;4.33;3.00;;;;;14.32;69.25;99496.75;5059193;28;45602;-49
2022/11/16 12:08:39;;;;;;;;;3.00;2.00;;;;;14.34;68.83;99493.91;5058513;28;45686;-49
2022/11/16 12:11:25;;;;;;;;;0.00;0.00;;;;;14.36;68.91;99481.97;4977197;28;45444;-49
2022/11/16 12:14:08;;;;;;;;;3.00;1.33;;;;;14.37;68.51;99490.84;4976903;28;45333;-48
2022/11/16 12:16:56;;;;;;;;;1.67;1.00;;;;;14.41;68.04;99494.72;4976974;28;45537;-45
2022/11/16 12:19:57;;;;;;;;;4.00;2.00;;;;;14.41;69.06;99482.19;4976627;28;46057;-49
2022/11/16 12:22:46;;;;;;;;;3.67;2.00;;;;;14.41;67.96;99490.22;4977017;28;45471;-44
2022/11/16 12:25:36;;;;;;;;;3.33;1.00;;;;;14.38;68.25;99484.44;4977378;28;45381;-47
2022/11/16 12:28:10;;;;;;;;;3.67;2.00;;;;;14.35;67.94;99488.34;4977226;28;45485;-48
2022/11/16 12:30:48;;;;;;;;;1.67;1.00;;;;;14.32;68.15;99479.88;4976617;28;46325;-46
2022/11/16 12:33:43;;;;;;;;;8.67;2.00;;;;;14.31;69.01;99459.53;4976615;28;45240;-47